createdAt,value
2022-08-19T00:02:02.655Z,6.78
2022-08-19T00:04:54.841Z,9.25
2022-08-19T00:07:49.710Z,8.05
2022-08-19T00:10:17.981Z,12.30
2022-08-19T00:12:48.733Z,7.78
2022-08-19T00:15:25.024Z,15.43
2022-08-19T00:17:55.684Z,8.30
2022-08-19T00:20:24.113Z,9.60
2022-08-19T00:23:01.387Z,9.82
2022-08-19T00:25:30.350Z,14.80
2022-08-19T00:28:01.973Z,15.05
2022-08-19T00:30:38.236Z,11.95
2022-08-19T00:33:09.209Z,12.93
2022-08-19T00:35:36.955Z,8.55
2022-08-19T00:38:06.744Z,8.75
2022-08-19T00:40:34.768Z,6.22
2022-08-19T00:43:02.071Z,9.38
2022-08-19T00:49:22.675Z,11.35
2022-08-19T00:52:01.411Z,12.45
2022-08-19T00:57:19.727Z,10.07
2022-08-19T01:00:00.476Z,9.32
2022-08-19T01:02:31.935Z,8.25
2022-08-19T01:05:00.241Z,10.43
2022-08-19T01:07:27.160Z,7.55
2022-08-19T01:09:54.885Z,12.00
2022-08-19T01:12:22.537Z,9.48
2022-08-19T01:14:51.100Z,9.90
2022-08-19T01:17:18.709Z,12.98
2022-08-19T01:19:47.903Z,8.65
2022-08-19T01:22:35.620Z,12.13
2022-08-19T01:25:03.555Z,9.50
2022-08-19T01:27:43.992Z,10.57
2022-08-19T01:30:20.630Z,8.18
2022-08-19T01:32:47.962Z,9.30
2022-08-19T01:37:50.954Z,11.60
2022-08-19T01:40:21.468Z,14.25
2022-08-19T01:42:49.915Z,10.55
2022-08-19T01:45:18.241Z,8.57
2022-08-19T01:47:52.695Z,12.57
2022-08-19T01:50:30.712Z,9.25
2022-08-19T01:53:02.453Z,15.82
2022-08-19T01:55:40.910Z,14.43
2022-08-19T01:58:14.412Z,10.27
2022-08-19T02:00:44.356Z,10.20
2022-08-19T02:03:12.203Z,10.32
2022-08-19T02:05:41.149Z,10.43
2022-08-19T02:08:09.201Z,9.80
2022-08-19T02:10:41.587Z,13.30
2022-08-19T02:13:11.021Z,11.60
2022-08-19T02:15:39.003Z,12.65
2022-08-19T02:18:07.301Z,15.25
2022-08-19T02:20:34.966Z,11.20
2022-08-19T02:23:02.229Z,10.48
2022-08-19T02:25:29.454Z,12.50
2022-08-19T02:30:25.527Z,15.63
2022-08-19T02:32:53.481Z,13.07
2022-08-19T02:35:23.250Z,10.90
2022-08-19T02:38:08.761Z,17.00
2022-08-19T02:40:36.464Z,10.48
2022-08-19T02:43:07.632Z,12.20
2022-08-19T02:45:36.527Z,14.60
2022-08-19T02:48:12.685Z,12.20
2022-08-19T02:50:56.393Z,14.10
2022-08-19T02:53:26.940Z,17.88
2022-08-19T02:55:54.565Z,14.98
2022-08-19T03:00:53.409Z,12.35
2022-08-19T03:03:20.918Z,11.82
2022-08-19T03:05:57.169Z,10.65
2022-08-19T03:08:26.510Z,13.18
2022-08-19T03:10:54.125Z,11.68
2022-08-19T03:13:21.865Z,18.75
2022-08-19T03:18:17.983Z,16.17
2022-08-19T03:20:55.428Z,17.73
2022-08-19T03:23:23.688Z,16.38
2022-08-19T03:26:02.834Z,14.00
2022-08-19T03:28:42.735Z,16.88
2022-08-19T03:31:43.319Z,19.98
2022-08-19T03:34:08.185Z,17.50
2022-08-19T03:36:36.848Z,15.02
2022-08-19T03:39:03.894Z,14.00
2022-08-19T03:41:44.330Z,13.90
2022-08-19T03:44:20.637Z,13.48
2022-08-19T03:46:50.298Z,21.90
2022-08-19T03:49:18.654Z,19.90
2022-08-19T03:51:48.044Z,15.65
2022-08-19T03:54:17.083Z,22.13
2022-08-19T03:56:45.784Z,20.65
2022-08-19T03:59:26.657Z,17.52
2022-08-19T04:01:59.128Z,17.42
2022-08-19T04:04:29.231Z,14.77
2022-08-19T04:06:58.751Z,19.95
2022-08-19T04:09:26.856Z,15.70
2022-08-19T04:11:56.080Z,20.63
2022-08-19T04:14:27.335Z,14.27
2022-08-19T04:16:54.462Z,18.15
2022-08-19T04:19:22.184Z,16.25
2022-08-19T04:21:52.968Z,17.70
2022-08-19T04:24:21.602Z,14.73
2022-08-19T04:26:49.734Z,21.95
2022-08-19T04:29:22.691Z,16.98
2022-08-19T04:31:55.169Z,17.13
2022-08-19T04:34:24.944Z,16.83
2022-08-19T04:36:56.787Z,16.92
2022-08-19T04:39:51.175Z,15.07
2022-08-19T04:42:38.973Z,19.70
2022-08-19T04:45:12.526Z,18.05
2022-08-19T04:47:47.931Z,18.52
2022-08-19T04:50:26.798Z,18.52
2022-08-19T04:52:54.147Z,17.67
2022-08-19T04:57:48.018Z,28.65
2022-08-19T05:00:15.493Z,24.55
2022-08-19T05:05:09.662Z,27.67
2022-08-19T05:07:37.024Z,39.53
2022-08-19T05:10:05.968Z,27.88
2022-08-19T05:12:32.940Z,33.60
2022-08-19T05:15:00.362Z,41.00
2022-08-19T05:17:31.253Z,38.17
2022-08-19T05:20:20.758Z,38.13
2022-08-19T05:22:48.858Z,42.15
2022-08-19T05:25:22.079Z,33.72
2022-08-19T05:27:49.704Z,35.42
2022-08-19T05:32:44.374Z,40.30
2022-08-19T05:35:12.633Z,39.58
2022-08-19T05:37:41.373Z,36.80
2022-08-19T05:40:09.881Z,30.40
2022-08-19T05:42:37.049Z,33.67
2022-08-19T05:45:04.790Z,38.88
2022-08-19T05:47:31.948Z,42.22
2022-08-19T05:49:58.787Z,46.55
2022-08-19T05:52:29.038Z,48.45
2022-08-19T05:54:57.392Z,38.65
2022-08-19T05:57:25.198Z,43.25
2022-08-19T05:59:53.286Z,40.63
2022-08-19T06:02:29.699Z,32.95
2022-08-19T06:04:56.833Z,39.20
2022-08-19T06:07:24.258Z,35.45
2022-08-19T06:10:00.998Z,36.70
2022-08-19T06:12:29.797Z,45.38
2022-08-19T06:15:00.786Z,48.85
2022-08-19T06:17:31.543Z,42.70
2022-08-19T06:19:59.557Z,48.78
2022-08-19T06:22:27.232Z,40.88
2022-08-19T06:24:54.950Z,44.58
2022-08-19T06:27:22.434Z,46.80
2022-08-19T06:32:17.633Z,44.20
2022-08-19T06:34:44.803Z,55.22
2022-08-19T06:37:12.510Z,52.05
2022-08-19T06:39:42.111Z,51.97
2022-08-19T06:42:12.558Z,52.30
2022-08-19T06:44:43.040Z,52.42
2022-08-19T06:47:14.685Z,55.42
2022-08-19T06:49:50.673Z,56.88
2022-08-19T06:54:55.569Z,56.47
2022-08-19T06:57:25.129Z,44.28
2022-08-19T06:59:52.786Z,48.03
2022-08-19T07:02:21.455Z,56.38
2022-08-19T07:04:48.868Z,51.05
2022-08-19T07:07:22.121Z,49.10
2022-08-19T07:09:59.958Z,47.97
2022-08-19T07:12:35.355Z,61.75
2022-08-19T07:15:05.304Z,48.22
2022-08-19T07:17:32.355Z,54.97
2022-08-19T07:20:05.181Z,53.13
2022-08-19T07:22:38.583Z,49.55
2022-08-19T07:25:08.109Z,61.42
2022-08-19T07:27:35.327Z,47.90
2022-08-19T07:30:02.712Z,56.92
2022-08-19T07:32:31.695Z,41.15
2022-08-19T07:35:01.642Z,44.20
2022-08-19T07:37:33.200Z,66.20
2022-08-19T07:40:02.418Z,49.95
2022-08-19T07:42:30.681Z,58.70
2022-08-19T07:44:59.211Z,47.25
2022-08-19T07:47:47.900Z,46.58
2022-08-19T07:52:40.372Z,46.78
2022-08-19T07:55:40.491Z,33.88
2022-08-19T07:57:58.251Z,37.00
2022-08-19T08:00:25.701Z,55.55
2022-08-19T08:02:55.838Z,44.13
2022-08-19T08:05:43.891Z,32.03
2022-08-19T08:08:35.706Z,46.75
2022-08-19T08:11:03.167Z,38.03
2022-08-19T08:13:36.178Z,35.47
2022-08-19T08:16:03.865Z,38.70
2022-08-19T08:18:30.806Z,40.38
2022-08-19T08:20:59.031Z,37.38
2022-08-19T08:23:27.402Z,47.67
2022-08-19T08:25:57.655Z,35.75
2022-08-19T08:28:26.284Z,28.52
2022-08-19T08:30:58.583Z,29.42
2022-08-19T08:33:33.511Z,29.67
2022-08-19T08:36:09.480Z,28.23
2022-08-19T08:38:40.286Z,32.47
2022-08-19T08:41:22.831Z,19.92
2022-08-19T08:43:53.150Z,25.38
2022-08-19T08:46:31.170Z,22.33
2022-08-19T08:49:25.455Z,27.77
2022-08-19T08:52:02.926Z,25.33
2022-08-19T08:54:49.172Z,28.27
2022-08-19T08:57:37.017Z,21.90
2022-08-19T09:00:15.280Z,32.45
2022-08-19T09:02:44.030Z,32.75
2022-08-19T09:05:16.668Z,32.90
2022-08-19T09:08:08.038Z,27.65
2022-08-19T09:10:55.257Z,31.23
2022-08-19T09:13:40.726Z,29.45
2022-08-19T09:16:15.857Z,39.50
2022-08-19T09:18:49.757Z,24.88
2022-08-19T09:21:17.555Z,21.95
2022-08-19T09:23:44.597Z,27.38
2022-08-19T09:28:48.808Z,17.02
2022-08-19T09:31:19.275Z,16.77
2022-08-19T09:33:46.964Z,19.52
2022-08-19T09:36:21.817Z,18.27
2022-08-19T09:39:02.494Z,18.48
2022-08-19T09:41:30.274Z,15.93
2022-08-19T09:43:59.288Z,21.35
2022-08-19T09:46:30.504Z,16.75
2022-08-19T09:49:03.022Z,11.30
2022-08-19T09:51:40.008Z,17.85
2022-08-19T09:54:11.219Z,16.80
2022-08-19T09:56:38.799Z,11.38
2022-08-19T09:59:11.364Z,13.85
2022-08-19T10:01:40.886Z,14.55
2022-08-19T10:04:19.683Z,14.30
2022-08-19T10:06:53.767Z,14.40
2022-08-19T10:09:34.559Z,10.45
2022-08-19T10:12:06.055Z,12.25
2022-08-19T10:14:33.825Z,17.23
2022-08-19T10:17:17.478Z,11.65
2022-08-19T10:19:55.793Z,8.07
2022-08-19T10:22:23.982Z,9.38
2022-08-19T10:24:53.795Z,13.95
2022-08-19T10:27:21.147Z,12.90
2022-08-19T10:29:49.450Z,14.43
2022-08-19T10:32:16.763Z,9.20
2022-08-19T10:34:52.240Z,19.27
2022-08-19T10:37:31.286Z,11.23
2022-08-19T10:39:58.667Z,10.85
2022-08-19T10:42:27.209Z,13.70
2022-08-19T10:45:04.833Z,11.05
2022-08-19T10:47:44.483Z,9.77
2022-08-19T10:50:35.169Z,11.88
2022-08-19T10:53:09.688Z,10.27
2022-08-19T10:55:58.458Z,11.27
2022-08-19T10:58:32.421Z,10.50
2022-08-19T11:01:00.489Z,9.68
2022-08-19T11:03:31.812Z,9.15
2022-08-19T11:06:13.471Z,6.97
2022-08-19T11:08:44.219Z,11.50
2022-08-19T11:11:22.000Z,9.45
2022-08-19T11:14:00.726Z,7.32
2022-08-19T11:16:30.410Z,5.65
2022-08-19T11:19:00.080Z,5.82
2022-08-19T11:21:35.791Z,7.03
2022-08-19T11:24:09.378Z,14.57
2022-08-19T11:26:37.349Z,5.70
2022-08-19T11:29:13.719Z,13.60
2022-08-19T11:31:46.601Z,8.32
2022-08-19T11:34:27.713Z,8.80
2022-08-19T11:36:59.651Z,7.78
2022-08-19T11:39:29.507Z,9.80
2022-08-19T11:42:03.257Z,8.43
2022-08-19T11:44:33.797Z,7.93
2022-08-19T11:47:08.962Z,10.65
2022-08-19T11:49:38.977Z,5.35
2022-08-19T11:52:11.608Z,10.35
2022-08-19T11:54:52.667Z,8.13
2022-08-19T11:57:36.682Z,5.57
2022-08-19T12:00:06.940Z,7.10
2022-08-19T12:02:34.232Z,12.13
2022-08-19T12:05:03.906Z,8.32
2022-08-19T12:07:35.429Z,6.82
2022-08-19T12:10:03.690Z,6.32
2022-08-19T12:12:34.619Z,5.88
2022-08-19T12:15:01.729Z,7.32
2022-08-19T12:17:32.221Z,11.85
2022-08-19T12:20:02.442Z,6.97
2022-08-19T12:22:29.898Z,9.00
2022-08-19T12:25:00.584Z,4.47
2022-08-19T12:27:39.933Z,9.07
2022-08-19T12:30:13.418Z,7.50
2022-08-19T12:32:41.482Z,7.95
2022-08-19T12:35:12.806Z,7.70
2022-08-19T12:37:56.730Z,5.38
2022-08-19T12:40:35.459Z,17.58
2022-08-19T12:43:02.473Z,8.93
2022-08-19T12:45:32.541Z,7.97
2022-08-19T12:48:07.969Z,14.35
2022-08-19T12:50:59.976Z,8.55
2022-08-19T12:53:27.322Z,10.82
2022-08-19T12:55:58.314Z,7.82
2022-08-19T12:58:27.312Z,9.00
2022-08-19T13:00:56.825Z,6.97
2022-08-19T13:03:30.752Z,14.07
2022-08-19T13:06:00.946Z,9.80
2022-08-19T13:08:31.792Z,3.78
2022-08-19T13:10:59.235Z,27.88
2022-08-19T13:13:26.954Z,7.63
2022-08-19T13:16:01.120Z,9.98
2022-08-19T13:18:30.509Z,7.93
2022-08-19T13:21:00.786Z,5.25
2022-08-19T13:23:27.856Z,7.07
2022-08-19T13:26:04.226Z,10.80
2022-08-19T13:28:52.701Z,6.28
2022-08-19T13:31:41.799Z,9.07
2022-08-19T13:34:10.413Z,6.15
2022-08-19T13:36:39.060Z,5.70
2022-08-19T13:39:13.213Z,13.77
2022-08-19T13:41:48.742Z,15.35
2022-08-19T13:44:20.019Z,14.75
2022-08-19T13:46:54.640Z,7.80
2022-08-19T13:49:24.292Z,11.70
2022-08-19T13:51:53.233Z,11.88
2022-08-19T13:54:20.563Z,9.15
2022-08-19T13:56:47.680Z,5.00
2022-08-19T14:01:51.729Z,9.60
2022-08-19T14:04:18.771Z,4.50
2022-08-19T14:09:15.741Z,12.80
2022-08-19T14:14:16.205Z,7.72
2022-08-19T14:16:43.892Z,7.70
2022-08-19T14:19:11.158Z,9.77
2022-08-19T14:24:09.579Z,5.25
2022-08-19T14:26:39.917Z,10.27
2022-08-19T14:29:08.974Z,8.00
2022-08-19T14:31:36.728Z,10.30
2022-08-19T14:34:04.113Z,11.90
2022-08-19T14:36:33.760Z,7.40
2022-08-19T14:39:04.318Z,13.27
2022-08-19T14:41:31.713Z,8.50
2022-08-19T14:43:58.760Z,13.25
2022-08-19T14:46:29.517Z,12.73
2022-08-19T14:49:00.449Z,8.38
2022-08-19T14:51:28.494Z,6.30
2022-08-19T14:53:56.212Z,6.07
2022-08-19T14:56:29.247Z,5.97
2022-08-19T14:59:00.427Z,5.43
2022-08-19T15:01:28.092Z,12.52
2022-08-19T15:03:55.679Z,10.52
2022-08-19T15:06:27.427Z,13.85
2022-08-19T15:08:55.410Z,7.50
2022-08-19T15:11:25.065Z,8.30
2022-08-19T15:13:52.454Z,9.25
2022-08-19T15:16:20.663Z,8.48
2022-08-19T15:18:54.579Z,8.18
2022-08-19T15:21:27.388Z,9.35
2022-08-19T15:23:56.531Z,12.10
2022-08-19T15:26:23.619Z,8.63
2022-08-19T15:28:50.964Z,7.88
2022-08-19T15:33:59.049Z,5.30
2022-08-19T15:36:28.585Z,12.80
2022-08-19T15:38:58.377Z,7.53
2022-08-19T15:41:30.776Z,7.07
2022-08-19T15:44:12.340Z,7.07
2022-08-19T15:46:44.213Z,9.18
2022-08-19T15:49:13.921Z,10.45
2022-08-19T15:51:43.345Z,11.35
2022-08-19T15:54:13.743Z,7.75
2022-08-19T15:57:08.948Z,7.18
2022-08-19T16:00:02.643Z,9.40
2022-08-19T16:02:53.643Z,7.97
2022-08-19T16:05:43.875Z,7.40
2022-08-19T16:08:13.326Z,5.93
2022-08-19T16:10:41.367Z,4.53
2022-08-19T16:13:10.572Z,4.97
2022-08-19T16:15:37.672Z,4.57
2022-08-19T16:18:05.299Z,4.13
2022-08-19T16:20:33.194Z,6.53
2022-08-19T16:23:05.207Z,7.55
2022-08-19T16:25:32.560Z,7.65
2022-08-19T16:28:07.952Z,3.65
2022-08-19T16:30:39.021Z,7.30
2022-08-19T16:33:07.053Z,11.60
2022-08-19T16:35:37.191Z,5.50
2022-08-19T16:38:07.957Z,7.15
2022-08-19T16:40:38.433Z,7.07
2022-08-19T16:43:08.027Z,7.95
2022-08-19T16:45:35.038Z,7.28
2022-08-19T16:50:48.593Z,10.27
2022-08-19T16:53:19.106Z,5.03
2022-08-19T16:55:50.910Z,8.10
2022-08-19T16:58:18.549Z,7.47
2022-08-19T17:00:48.673Z,5.05
2022-08-19T17:03:29.503Z,11.50
2022-08-19T17:06:20.718Z,5.03
2022-08-19T17:08:57.057Z,9.95
2022-08-19T17:11:29.069Z,12.85
2022-08-19T17:13:56.720Z,8.35
2022-08-19T17:16:26.577Z,8.13
2022-08-19T17:18:58.233Z,7.75
2022-08-19T17:21:32.938Z,7.50
2022-08-19T17:24:06.159Z,8.27
2022-08-19T17:26:33.744Z,10.13
2022-08-19T17:29:04.284Z,7.88
2022-08-19T17:31:32.543Z,8.90
2022-08-19T17:34:00.025Z,5.32
2022-08-19T17:37:47.947Z,6.50
2022-08-19T17:42:02.771Z,6.63
2022-08-19T17:44:30.840Z,11.93
2022-08-19T17:50:11.862Z,12.02
2022-08-19T17:52:46.192Z,7.35
2022-08-19T17:55:23.181Z,11.60
2022-08-19T17:58:02.645Z,12.00
2022-08-19T18:00:53.964Z,9.00
2022-08-19T18:03:32.461Z,11.02
2022-08-19T18:06:07.857Z,12.73
2022-08-19T18:09:03.550Z,6.28
2022-08-19T18:11:34.592Z,16.80
2022-08-19T18:14:05.642Z,10.20
2022-08-19T18:16:52.476Z,7.00
2022-08-19T18:19:42.999Z,14.80
2022-08-19T18:22:36.560Z,10.65
2022-08-19T18:25:12.027Z,10.88
2022-08-19T18:27:56.929Z,11.65
2022-08-19T18:33:34.776Z,9.77
2022-08-19T18:36:32.013Z,5.85
2022-08-19T18:39:29.228Z,12.90
2022-08-19T18:42:19.485Z,8.15
2022-08-19T18:45:05.491Z,13.68
2022-08-19T18:47:53.898Z,13.32
2022-08-19T18:50:25.983Z,11.20
2022-08-19T18:52:53.577Z,13.63
2022-08-19T18:55:22.537Z,12.95
2022-08-19T18:57:51.136Z,14.05
2022-08-19T19:00:20.116Z,10.93
2022-08-19T19:02:47.117Z,9.27
2022-08-19T19:05:15.443Z,13.65
2022-08-19T19:07:42.506Z,11.20
2022-08-19T19:10:09.842Z,9.90
2022-08-19T19:12:40.443Z,11.73
2022-08-19T19:15:08.446Z,9.10
2022-08-19T19:17:35.369Z,11.55
2022-08-19T19:20:03.129Z,10.40
2022-08-19T19:22:30.095Z,8.32
2022-08-19T19:24:59.213Z,11.00
2022-08-19T19:27:26.586Z,9.75
2022-08-19T19:29:53.563Z,7.85
2022-08-19T19:34:50.431Z,10.75
2022-08-19T19:37:17.873Z,11.43
2022-08-19T19:39:46.620Z,9.43
2022-08-19T19:42:19.911Z,8.70
2022-08-19T19:44:55.200Z,13.00
2022-08-19T19:47:30.775Z,8.90
2022-08-19T19:50:16.310Z,12.77
2022-08-19T19:52:45.930Z,16.55
2022-08-19T19:55:20.765Z,18.33
2022-08-19T19:57:57.745Z,17.90
2022-08-19T20:00:25.508Z,15.80
2022-08-19T20:03:11.529Z,15.65
2022-08-19T20:05:43.584Z,16.10
2022-08-19T20:08:34.056Z,22.55
2022-08-19T20:11:10.934Z,24.10
2022-08-19T20:13:49.230Z,25.60
2022-08-19T20:16:28.070Z,23.17
2022-08-19T20:19:05.853Z,30.30
2022-08-19T20:21:36.830Z,21.55
2022-08-19T20:24:09.092Z,22.27
2022-08-19T20:26:40.423Z,22.27
2022-08-19T20:29:13.646Z,33.58
2022-08-19T20:31:59.513Z,25.98
2022-08-19T20:34:31.461Z,34.13
2022-08-19T20:36:59.652Z,23.58
2022-08-19T20:39:28.364Z,28.48
2022-08-19T20:41:56.591Z,26.05
2022-08-19T20:44:34.454Z,26.73
2022-08-19T20:47:06.499Z,27.95
2022-08-19T20:49:37.206Z,30.20
2022-08-19T20:52:05.675Z,26.95
2022-08-19T20:54:38.565Z,28.88
2022-08-19T20:57:08.869Z,23.38
2022-08-19T20:59:40.751Z,28.02
2022-08-19T21:02:10.631Z,27.13
2022-08-19T21:04:45.459Z,22.67
2022-08-19T21:07:17.414Z,21.77
2022-08-19T21:09:50.504Z,24.42
2022-08-19T21:12:23.219Z,25.83
2022-08-19T21:14:51.238Z,23.83
2022-08-19T21:17:22.090Z,29.70
2022-08-19T21:19:52.120Z,21.95
2022-08-19T21:22:19.359Z,21.98
2022-08-19T21:24:52.498Z,23.13
2022-08-19T21:27:25.755Z,21.88
2022-08-19T21:29:55.146Z,27.67
2022-08-19T21:32:23.739Z,26.23
2022-08-19T21:34:57.420Z,18.90
2022-08-19T21:37:26.252Z,24.92
2022-08-19T21:39:56.698Z,20.20
2022-08-19T21:42:28.391Z,18.33
2022-08-19T21:44:58.363Z,20.73
2022-08-19T21:47:31.872Z,21.35
2022-08-19T21:50:05.066Z,25.33
2022-08-19T21:52:32.908Z,19.60
2022-08-19T21:55:00.920Z,17.10
2022-08-19T21:57:33.470Z,18.35
2022-08-19T22:00:01.630Z,17.50
2022-08-19T22:02:46.432Z,18.27
2022-08-19T22:05:18.305Z,16.25
2022-08-19T22:07:57.436Z,15.88
2022-08-19T22:10:28.891Z,12.57
2022-08-19T22:12:57.175Z,12.07
2022-08-19T22:15:27.363Z,16.25
2022-08-19T22:17:54.819Z,12.48
2022-08-19T22:20:26.639Z,13.73
2022-08-19T22:23:04.086Z,12.80
2022-08-19T22:25:37.774Z,11.68
2022-08-19T22:28:12.211Z,11.02
2022-08-19T22:30:45.091Z,13.38
2022-08-19T22:33:22.714Z,9.90
2022-08-19T22:35:53.523Z,10.43
2022-08-19T22:38:27.471Z,12.45
2022-08-19T22:40:56.529Z,11.35
2022-08-19T22:43:57.710Z,10.38
2022-08-19T22:46:28.138Z,10.82
2022-08-19T22:49:01.350Z,12.00
2022-08-19T22:51:47.904Z,13.25
2022-08-19T22:54:19.690Z,14.85
2022-08-19T22:56:59.706Z,13.63
2022-08-19T22:59:54.916Z,20.77
2022-08-19T23:02:32.130Z,19.13
2022-08-19T23:05:10.267Z,13.13
2022-08-19T23:07:41.125Z,12.27
2022-08-19T23:10:12.079Z,15.98
2022-08-19T23:12:47.703Z,14.65
2022-08-19T23:15:28.205Z,18.02
2022-08-19T23:17:59.945Z,19.13
2022-08-19T23:20:31.776Z,17.83
2022-08-19T23:23:10.733Z,15.50
2022-08-19T23:25:41.752Z,14.60
2022-08-19T23:28:29.927Z,13.10
2022-08-19T23:31:18.875Z,17.42
2022-08-19T23:36:21.241Z,16.52
2022-08-19T23:38:50.706Z,15.98
2022-08-19T23:41:20.734Z,14.98
2022-08-19T23:43:48.521Z,13.40
2022-08-19T23:46:28.041Z,15.02
2022-08-19T23:49:11.027Z,17.17
2022-08-19T23:51:41.561Z,17.92
2022-08-19T23:54:11.336Z,14.65
2022-08-19T23:56:43.672Z,20.67
2022-08-19T23:59:21.919Z,14.95
